Time;durP1;ratioP1;P1;durP2;ratioP2;P2;SDS_P1;SDS_P2;PMS_P1;PMS_P2;Temp;Humidity;BMP_temperature;BMP_pressure;BME280_temperature;BME280_humidity;BME280_pressure;Samples;Min_cycle;Max_cycle;Signal;HPM_P1;HPM_P2
2022/10/13 00:00:56;;;;;;;56.30;28.70;;;6.50;99.90;;;;;;5035457;28;20060;-79
2022/10/13 00:03:24;;;;;;;54.53;27.95;;;6.60;99.90;;;;;;5028970;28;20045;-79
2022/10/13 00:05:51;;;;;;;52.10;24.92;;;6.50;99.90;;;;;;5036708;28;20033;-79
2022/10/13 00:08:20;;;;;;;50.35;25.17;;;6.40;99.90;;;;;;5024445;28;20260;-79
2022/10/13 00:10:49;;;;;;;53.90;24.45;;;6.30;99.90;;;;;;5038501;28;20288;-78
2022/10/13 00:13:19;;;;;;;60.10;28.45;;;6.40;99.90;;;;;;5006437;28;20053;-78
2022/10/13 00:15:47;;;;;;;60.72;28.23;;;6.40;99.90;;;;;;5014710;28;20049;-79
2022/10/13 00:18:15;;;;;;;59.85;29.17;;;6.50;99.90;;;;;;5014504;28;20049;-79
2022/10/13 00:20:47;;;;;;;62.90;26.98;;;6.60;99.90;;;;;;5033440;28;20038;-78
2022/10/13 00:23:14;;;;;;;54.03;27.45;;;6.60;99.90;;;;;;5023843;28;20053;-79
2022/10/13 00:25:46;;;;;;;64.72;30.67;;;6.70;99.90;;;;;;5034212;28;20045;-78
2022/10/13 00:28:14;;;;;;;70.78;30.63;;;6.80;99.90;;;;;;5024995;28;20051;-78
2022/10/13 00:30:41;;;;;;;82.68;32.83;;;6.70;99.90;;;;;;5030146;28;20045;-78
2022/10/13 00:33:12;;;;;;;62.08;29.30;;;6.80;99.90;;;;;;5020406;28;20048;-78
2022/10/13 00:35:44;;;;;;;62.72;30.05;;;6.70;99.90;;;;;;5022315;28;20055;-78
2022/10/13 00:38:14;;;;;;;66.88;28.85;;;6.70;99.90;;;;;;5018364;28;20051;-78
2022/10/13 00:40:53;;;;;;;73.95;33.00;;;6.50;99.90;;;;;;5016933;28;20527;-78
2022/10/13 00:43:23;;;;;;;66.22;29.58;;;6.50;99.90;;;;;;5019255;28;20063;-78
2022/10/13 00:45:51;;;;;;;90.68;35.15;;;6.40;99.90;;;;;;5035182;28;20144;-78
2022/10/13 00:48:26;;;;;;;83.00;35.50;;;6.50;99.90;;;;;;5030660;28;20056;-79
2022/10/13 00:50:57;;;;;;;74.80;32.00;;;6.30;99.90;;;;;;5039690;28;20045;-79
2022/10/13 00:53:29;;;;;;;63.10;28.35;;;6.10;99.90;;;;;;5022725;28;20045;-79
2022/10/13 00:55:56;;;;;;;75.78;31.42;;;6.10;99.90;;;;;;5008408;28;20055;-79
2022/10/13 00:58:25;;;;;;;56.13;28.85;;;6.00;99.90;;;;;;5018246;28;20060;-79
2022/10/13 01:00:52;;;;;;;67.47;30.25;;;5.90;99.90;;;;;;5024663;28;20045;-78
2022/10/13 01:03:20;;;;;;;67.65;30.50;;;5.90;99.90;;;;;;5033364;28;20048;-78
2022/10/13 01:05:49;;;;;;;78.22;33.05;;;5.90;99.90;;;;;;5022844;28;20047;-78
2022/10/13 01:08:17;;;;;;;90.25;36.88;;;5.80;99.90;;;;;;5028100;28;20041;-78
2022/10/13 01:11:02;;;;;;;72.50;31.60;;;5.80;99.90;;;;;;5042085;28;20045;-78
2022/10/13 01:13:42;;;;;;;72.55;33.30;;;5.80;99.90;;;;;;5006821;28;20057;-79
2022/10/13 01:16:16;;;;;;;63.15;30.10;;;5.80;99.90;;;;;;5017457;28;20037;-78
2022/10/13 01:18:58;;;;;;;62.33;31.13;;;5.70;99.90;;;;;;5039915;28;20116;-79
2022/10/13 01:21:43;;;;;;;71.38;31.88;;;5.70;99.90;;;;;;5023371;28;20455;-79
2022/10/13 01:24:38;;;;;;;63.72;32.15;;;5.60;99.90;;;;;;5034032;28;20611;-78
2022/10/13 01:27:23;;;;;;;64.45;31.17;;;5.60;99.90;;;;;;5026109;28;20034;-78
2022/10/13 01:30:04;;;;;;;78.72;33.58;;;5.60;99.90;;;;;;5022397;28;20053;-78
2022/10/13 01:32:35;;;;;;;67.13;31.48;;;5.60;99.90;;;;;;5035786;28;20037;-78
2022/10/13 01:35:28;;;;;;;64.05;30.30;;;5.50;99.90;;;;;;5035098;28;20064;-79
2022/10/13 01:38:02;;;;;;;59.92;30.30;;;5.50;99.90;;;;;;5002386;28;20052;-79
2022/10/13 01:40:45;;;;;;;56.08;29.08;;;5.50;99.90;;;;;;5037459;28;20063;-78
2022/10/13 01:43:19;;;;;;;61.47;31.38;;;5.50;99.90;;;;;;5021263;28;20045;-78
2022/10/13 01:45:59;;;;;;;71.00;32.42;;;5.40;99.90;;;;;;5021029;28;20600;-78
2022/10/13 01:48:27;;;;;;;59.40;30.58;;;5.30;99.90;;;;;;5041742;28;20052;-78
2022/10/13 01:50:57;;;;;;;69.40;30.92;;;5.40;99.90;;;;;;5012289;28;20486;-79
2022/10/13 01:53:24;;;;;;;67.55;32.05;;;5.50;99.90;;;;;;5015314;28;20059;-79
2022/10/13 01:55:58;;;;;;;70.32;32.65;;;5.60;99.90;;;;;;5023315;28;20660;-79
2022/10/13 01:58:28;;;;;;;70.82;32.90;;;5.60;99.90;;;;;;5050972;28;20536;-79
2022/10/13 02:01:20;;;;;;;69.63;32.70;;;5.80;99.90;;;;;;5017029;28;20064;-79
2022/10/13 02:04:02;;;;;;;82.10;35.03;;;5.70;99.90;;;;;;5041742;28;20622;-79
2022/10/13 02:06:56;;;;;;;77.65;33.72;;;5.70;99.90;;;;;;5034722;28;20044;-79
2022/10/13 02:09:29;;;;;;;73.57;33.58;;;5.80;99.90;;;;;;5011851;28;20052;-79
2022/10/13 02:12:06;;;;;;;71.72;33.25;;;5.80;99.90;;;;;;5017768;28;20040;-79
2022/10/13 02:14:37;;;;;;;63.58;32.00;;;5.80;99.90;;;;;;5027955;28;20104;-79
2022/10/13 02:17:04;;;;;;;82.45;35.45;;;5.90;99.90;;;;;;5010594;28;20148;-79
2022/10/13 02:19:36;;;;;;;80.53;34.63;;;6.10;99.90;;;;;;5032985;28;20140;-79
2022/10/13 02:22:04;;;;;;;96.15;38.65;;;6.10;99.90;;;;;;5031900;28;20041;-79
2022/10/13 02:24:32;;;;;;;69.72;32.65;;;6.20;99.90;;;;;;5046386;28;20045;-79
2022/10/13 02:26:58;;;;;;;67.50;32.13;;;6.20;99.90;;;;;;5019694;28;20056;-79
2022/10/13 02:29:25;;;;;;;70.35;32.25;;;6.30;99.90;;;;;;5036757;28;20060;-79
2022/10/13 02:31:53;;;;;;;86.20;38.00;;;6.20;99.90;;;;;;5021054;28;20044;-79
2022/10/13 02:34:20;;;;;;;80.45;35.53;;;6.40;99.90;;;;;;5022119;28;20109;-79
2022/10/13 02:36:47;;;;;;;71.78;32.13;;;6.60;99.90;;;;;;5036303;28;20055;-78
2022/10/13 02:39:14;;;;;;;75.60;33.20;;;6.50;99.90;;;;;;5022176;28;20038;-78
2022/10/13 02:41:41;;;;;;;72.13;32.90;;;6.40;99.90;;;;;;5030024;28;20052;-78
2022/10/13 02:44:07;;;;;;;66.18;32.38;;;6.50;99.90;;;;;;5016666;28;20068;-79
2022/10/13 02:46:40;;;;;;;91.47;36.10;;;6.50;99.90;;;;;;5014238;28;20041;-79
2022/10/13 02:49:06;;;;;;;83.53;36.15;;;6.60;99.90;;;;;;5031567;28;20414;-78
2022/10/13 02:51:33;;;;;;;95.55;38.75;;;6.50;99.90;;;;;;5028721;28;20041;-78
2022/10/13 02:54:06;;;;;;;87.00;35.78;;;6.70;99.90;;;;;;5023397;28;20733;-78
2022/10/13 02:56:32;;;;;;;86.25;37.50;;;6.90;99.90;;;;;;5028429;28;20044;-78
2022/10/13 02:58:59;;;;;;;92.55;37.78;;;6.90;99.90;;;;;;5004470;28;20053;-79
2022/10/13 03:01:26;;;;;;;85.45;37.00;;;7.10;99.90;;;;;;5001625;28;20045;-78
2022/10/13 03:03:52;;;;;;;100.90;39.22;;;7.00;99.90;;;;;;5035656;28;20037;-79
2022/10/13 03:06:19;;;;;;;88.75;36.38;;;7.20;99.90;;;;;;5033805;28;20041;-79
2022/10/13 03:08:47;;;;;;;105.00;39.95;;;7.20;99.90;;;;;;5041007;28;20044;-79
2022/10/13 03:11:13;;;;;;;116.25;45.15;;;7.30;99.90;;;;;;5036064;28;20137;-78
2022/10/13 03:13:40;;;;;;;90.63;37.60;;;7.60;99.90;;;;;;5045511;28;20079;-78
2022/10/13 03:16:07;;;;;;;91.60;39.42;;;7.60;99.90;;;;;;5042564;28;20043;-78
2022/10/13 03:18:34;;;;;;;82.57;36.25;;;7.40;99.90;;;;;;5037789;28;20047;-78
2022/10/13 03:21:04;;;;;;;101.65;41.60;;;7.40;99.90;;;;;;5039531;28;20048;-78
2022/10/13 03:23:35;;;;;;;96.20;39.95;;;7.50;99.90;;;;;;5040923;28;20140;-79
2022/10/13 03:26:03;;;;;;;102.78;41.45;;;7.40;99.90;;;;;;5006709;28;20041;-79
2022/10/13 03:28:30;;;;;;;100.47;39.13;;;7.40;99.90;;;;;;5029163;28;20037;-80
2022/10/13 03:31:06;;;;;;;104.88;41.72;;;7.40;99.90;;;;;;5004393;28;20615;-78
2022/10/13 03:33:33;;;;;;;98.90;40.03;;;7.40;99.90;;;;;;5020775;28;20128;-78
2022/10/13 03:36:01;;;;;;;90.55;38.58;;;7.60;99.90;;;;;;5015556;28;20045;-78
2022/10/13 03:38:32;;;;;;;109.55;42.33;;;7.50;99.90;;;;;;5015509;28;20059;-78
2022/10/13 03:41:07;;;;;;;88.95;40.67;;;7.50;99.90;;;;;;4998807;28;20145;-78
2022/10/13 03:43:35;;;;;;;91.05;39.47;;;7.50;99.90;;;;;;5038957;28;20568;-78
2022/10/13 03:46:04;;;;;;;83.88;37.60;;;7.60;99.90;;;;;;5025437;28;20036;-79
2022/10/13 03:48:33;;;;;;;92.50;39.47;;;7.60;99.90;;;;;;5018969;28;20041;-78
2022/10/13 03:51:07;;;;;;;92.32;39.30;;;7.60;99.90;;;;;;5039286;28;20043;-79
2022/10/13 03:53:34;;;;;;;83.03;37.75;;;7.50;99.90;;;;;;5025734;28;20103;-79
2022/10/13 03:56:02;;;;;;;123.70;45.35;;;7.50;99.90;;;;;;5022609;28;20041;-78
2022/10/13 03:58:32;;;;;;;108.57;44.47;;;7.50;99.90;;;;;;5022116;28;20056;-78
2022/10/13 04:01:05;;;;;;;111.68;44.65;;;7.80;99.90;;;;;;5022927;28;20100;-78
2022/10/13 04:03:33;;;;;;;111.35;44.65;;;8.00;99.90;;;;;;5015546;28;20072;-79
2022/10/13 04:06:01;;;;;;;114.18;44.70;;;8.00;99.90;;;;;;5030388;28;20072;-78
2022/10/13 04:08:29;;;;;;;90.70;39.90;;;7.80;99.90;;;;;;5026227;28;20505;-79
2022/10/13 04:11:01;;;;;;;96.30;41.70;;;7.70;99.90;;;;;;5034161;28;20037;-79
2022/10/13 04:13:28;;;;;;;95.07;42.40;;;7.80;99.90;;;;;;5021283;28;20659;-79
2022/10/13 04:15:55;;;;;;;95.40;43.97;;;7.70;99.90;;;;;;5005318;28;20033;-79
2022/10/13 04:18:22;;;;;;;87.97;41.63;;;7.80;99.90;;;;;;5030259;28;20560;-79
2022/10/13 04:20:49;;;;;;;91.80;42.53;;;7.80;99.90;;;;;;5034936;28;20111;-79
2022/10/13 04:23:15;;;;;;;99.88;41.95;;;7.80;99.90;;;;;;5017008;28;20048;-79
2022/10/13 04:25:46;;;;;;;99.95;43.08;;;7.80;99.90;;;;;;5019653;28;20048;-79
2022/10/13 04:28:13;;;;;;;105.18;43.78;;;7.80;99.90;;;;;;5037093;28;20049;-79
2022/10/13 04:30:40;;;;;;;97.55;45.30;;;7.90;99.90;;;;;;5022704;28;20052;-79
2022/10/13 04:33:12;;;;;;;95.00;43.33;;;8.00;99.90;;;;;;5039796;28;20072;-79
2022/10/13 04:35:42;;;;;;;101.32;46.10;;;8.00;99.90;;;;;;5043313;28;20055;-79
2022/10/13 04:38:09;;;;;;;91.50;45.55;;;8.00;99.90;;;;;;5021652;28;20487;-79
2022/10/13 04:40:35;;;;;;;95.88;42.97;;;8.10;99.90;;;;;;5029663;28;20068;-79
2022/10/13 04:43:02;;;;;;;102.30;44.75;;;8.20;99.90;;;;;;5021094;28;20426;-79
2022/10/13 04:45:29;;;;;;;84.60;41.20;;;8.20;99.90;;;;;;5032081;28;20062;-79
2022/10/13 04:47:56;;;;;;;89.63;41.28;;;8.20;99.90;;;;;;5019061;28;20065;-80
2022/10/13 04:50:22;;;;;;;83.60;41.25;;;8.20;99.90;;;;;;5039036;28;20528;-79
2022/10/13 04:52:58;;;;;;;92.87;42.80;;;8.20;99.90;;;;;;5015638;28;20651;-79
2022/10/13 04:55:24;;;;;;;90.60;42.13;;;8.20;99.90;;;;;;5024594;28;20063;-79
2022/10/13 04:57:51;;;;;;;99.05;42.63;;;8.10;99.90;;;;;;5021494;28;20051;-79
2022/10/13 05:00:18;;;;;;;91.18;41.75;;;8.10;99.90;;;;;;5038092;28;20146;-80
2022/10/13 05:02:45;;;;;;;90.53;42.80;;;8.00;99.90;;;;;;5001896;28;20267;-80
2022/10/13 05:05:11;;;;;;;85.50;41.10;;;8.00;99.90;;;;;;5028696;28;20040;-79
2022/10/13 05:07:38;;;;;;;91.55;41.50;;;8.00;99.90;;;;;;5039717;28;20567;-80
2022/10/13 05:10:05;;;;;;;89.60;43.58;;;8.10;99.90;;;;;;5014076;28;20041;-79
2022/10/13 05:12:31;;;;;;;95.50;43.35;;;8.10;99.90;;;;;;5037277;28;20049;-79
2022/10/13 05:14:58;;;;;;;81.78;39.75;;;8.10;99.90;;;;;;5040406;28;20055;-79
2022/10/13 05:17:25;;;;;;;80.40;42.53;;;8.20;99.90;;;;;;5006687;28;20048;-79
2022/10/13 05:19:51;;;;;;;79.03;40.03;;;8.20;99.90;;;;;;5040928;28;20048;-80
2022/10/13 05:22:18;;;;;;;80.03;41.75;;;8.10;99.90;;;;;;5035434;28;20048;-79
2022/10/13 05:24:46;;;;;;;86.55;42.10;;;8.10;99.90;;;;;;5040149;28;20036;-80
2022/10/13 05:27:13;;;;;;;85.82;40.28;;;8.00;99.90;;;;;;5021791;28;20105;-80
2022/10/13 05:29:40;;;;;;;82.57;39.47;;;7.90;99.90;;;;;;5039886;28;20148;-79
2022/10/13 05:32:07;;;;;;;87.97;42.35;;;7.90;99.90;;;;;;5022655;28;20041;-80
2022/10/13 05:34:34;;;;;;;82.82;42.03;;;8.00;99.90;;;;;;5040662;28;20080;-79
2022/10/13 05:37:00;;;;;;;79.88;39.75;;;8.10;99.90;;;;;;5017593;28;20514;-80
2022/10/13 05:39:27;;;;;;;79.55;39.65;;;7.90;99.90;;;;;;5038934;28;20053;-79
2022/10/13 05:41:54;;;;;;;78.30;41.35;;;7.90;99.90;;;;;;5040767;28;20041;-80
2022/10/13 05:44:21;;;;;;;83.20;39.20;;;7.90;99.90;;;;;;5031260;28;20057;-80
2022/10/13 05:46:54;;;;;;;77.90;39.22;;;7.90;99.90;;;;;;5040380;28;20040;-80
2022/10/13 05:49:21;;;;;;;83.97;41.08;;;7.80;99.90;;;;;;5043359;28;20095;-79
2022/10/13 05:51:51;;;;;;;82.47;41.13;;;7.90;99.90;;;;;;5025883;28;20053;-80
2022/10/13 05:54:24;;;;;;;80.82;39.03;;;8.00;99.90;;;;;;5025139;28;20068;-79
2022/10/13 05:57:31;;;;;;;82.80;39.30;;;8.00;99.90;;;;;;5021064;28;20064;-78
2022/10/13 06:00:10;;;;;;;83.20;39.15;;;7.90;99.90;;;;;;5034322;28;20941;-79
2022/10/13 06:02:55;;;;;;;93.80;40.35;;;8.00;99.90;;;;;;5036194;28;20049;-78
2022/10/13 06:05:24;;;;;;;88.00;39.92;;;8.00;99.90;;;;;;5038845;28;20041;-79
2022/10/13 06:07:52;;;;;;;85.32;40.72;;;8.20;99.90;;;;;;5028588;28;20068;-79
2022/10/13 06:10:19;;;;;;;88.88;41.33;;;8.30;99.90;;;;;;5033481;28;20688;-79
2022/10/13 06:12:46;;;;;;;81.80;40.75;;;8.20;99.90;;;;;;5031227;28;20112;-78
2022/10/13 06:15:13;;;;;;;86.57;42.50;;;8.30;99.90;;;;;;5006777;28;20049;-80
2022/10/13 06:17:40;;;;;;;82.60;37.70;;;8.30;99.90;;;;;;5033912;28;20534;-79
2022/10/13 06:20:07;;;;;;;85.82;42.53;;;8.20;99.90;;;;;;5037833;28;20049;-79
2022/10/13 06:22:35;;;;;;;83.95;39.25;;;8.30;99.90;;;;;;5016340;28;20034;-79
2022/10/13 06:25:06;;;;;;;77.22;37.95;;;8.30;99.90;;;;;;5036417;28;20155;-79
2022/10/13 06:27:33;;;;;;;82.15;39.60;;;8.30;99.90;;;;;;5014448;28;20095;-79
2022/10/13 06:30:00;;;;;;;75.07;38.72;;;8.50;99.90;;;;;;5021420;28;20482;-79
2022/10/13 06:32:26;;;;;;;71.13;38.45;;;8.50;99.90;;;;;;5031178;28;20037;-78
2022/10/13 06:34:55;;;;;;;61.97;33.88;;;8.60;99.90;;;;;;5011737;28;20048;-79
2022/10/13 06:37:21;;;;;;;72.65;43.67;;;8.80;99.90;;;;;;5033003;28;20502;-79
2022/10/13 06:39:53;;;;;;;64.43;38.25;;;8.90;99.90;;;;;;5008069;28;20098;-79
2022/10/13 06:42:19;;;;;;;73.05;39.28;;;8.90;99.90;;;;;;5027454;28;20136;-79
2022/10/13 06:45:04;;;;;;;64.53;35.95;;;8.90;99.90;;;;;;5002971;28;20049;-78
2022/10/13 06:47:30;;;;;;;65.82;37.08;;;8.90;99.90;;;;;;5006811;28;20450;-79
2022/10/13 06:49:57;;;;;;;97.72;47.45;;;8.90;99.90;;;;;;5035308;28;20621;-79
2022/10/13 06:52:24;;;;;;;64.70;35.03;;;8.90;99.90;;;;;;5008446;28;20068;-78
2022/10/13 06:54:50;;;;;;;48.58;30.45;;;9.00;99.90;;;;;;5030351;28;20590;-79
2022/10/13 06:57:17;;;;;;;59.42;32.28;;;9.10;99.90;;;;;;4999593;28;20513;-77
2022/10/13 06:59:43;;;;;;;44.92;28.88;;;9.20;99.90;;;;;;5037434;28;20490;-78
2022/10/13 07:02:10;;;;;;;47.25;29.83;;;9.30;99.90;;;;;;5028128;28;20055;-79
2022/10/13 07:04:37;;;;;;;43.60;27.52;;;9.30;99.90;;;;;;5031543;28;20144;-79
2022/10/13 07:07:04;;;;;;;41.03;27.00;;;9.30;99.90;;;;;;5023558;28;20442;-80
2022/10/13 07:09:30;;;;;;;43.53;27.33;;;9.40;99.90;;;;;;5012729;28;20495;-78
2022/10/13 07:11:58;;;;;;;42.75;26.95;;;9.50;99.90;;;;;;5035762;28;20047;-78
2022/10/13 07:14:25;;;;;;;41.13;26.55;;;9.50;99.90;;;;;;5044996;28;20041;-78
2022/10/13 07:16:52;;;;;;;34.17;24.00;;;9.50;99.90;;;;;;5041361;28;20044;-78
2022/10/13 07:19:19;;;;;;;44.88;27.40;;;9.60;99.90;;;;;;5042975;28;20601;-79
2022/10/13 07:21:45;;;;;;;38.78;27.45;;;9.60;99.90;;;;;;5008626;28;20706;-78
2022/10/13 07:24:12;;;;;;;36.67;26.05;;;9.60;99.90;;;;;;5022996;28;20042;-79
2022/10/13 07:26:39;;;;;;;43.22;27.60;;;9.80;99.90;;;;;;5030463;28;20044;-79
2022/10/13 07:29:06;;;;;;;43.58;28.13;;;9.70;99.90;;;;;;5024317;28;20091;-80
2022/10/13 07:31:33;;;;;;;50.33;28.33;;;9.80;99.90;;;;;;5018410;28;20533;-80
2022/10/13 07:34:00;;;;;;;43.47;29.25;;;9.90;99.90;;;;;;5009045;28;20053;-79
2022/10/13 07:36:27;;;;;;;36.03;27.27;;;9.90;99.90;;;;;;5014278;28;20056;-79
2022/10/13 07:38:54;;;;;;;38.95;28.02;;;9.90;99.90;;;;;;5017707;28;20487;-79
2022/10/13 07:41:20;;;;;;;34.38;26.23;;;10.10;99.90;;;;;;5003370;28;20041;-80
2022/10/13 07:43:47;;;;;;;38.03;28.30;;;10.00;99.90;;;;;;5031433;28;20511;-79
2022/10/13 07:46:15;;;;;;;42.13;29.25;;;10.10;99.90;;;;;;5013750;28;20041;-80
2022/10/13 07:48:41;;;;;;;40.50;27.17;;;10.20;99.90;;;;;;5004279;28;20457;-80
2022/10/13 07:51:11;;;;;;;35.35;25.33;;;10.20;99.90;;;;;;5031106;28;20110;-80
2022/10/13 07:53:41;;;;;;;39.30;24.63;;;10.30;99.90;;;;;;5020117;28;20084;-79
2022/10/13 07:56:10;;;;;;;27.67;23.65;;;10.40;99.90;;;;;;5032723;28;20041;-78
2022/10/13 07:58:39;;;;;;;30.17;23.15;;;10.50;99.90;;;;;;5006207;28;20073;-78
2022/10/13 08:01:06;;;;;;;30.70;23.75;;;10.60;99.90;;;;;;5024302;28;20097;-78
2022/10/13 08:03:40;;;;;;;36.40;23.30;;;10.60;99.90;;;;;;5034854;28;20502;-77
2022/10/13 08:06:15;;;;;;;30.25;22.25;;;10.50;99.90;;;;;;5029297;28;20040;-78
2022/10/13 08:08:42;;;;;;;32.15;23.38;;;10.60;99.90;;;;;;5040576;28;20599;-77
2022/10/13 08:11:13;;;;;;;30.80;22.83;;;10.70;99.90;;;;;;5036764;28;20120;-78
2022/10/13 08:13:49;;;;;;;34.20;22.95;;;10.90;99.90;;;;;;5019376;28;20076;-78
2022/10/13 08:16:22;;;;;;;31.92;23.10;;;11.00;99.90;;;;;;5040215;28;20140;-78
2022/10/13 08:18:49;;;;;;;33.78;23.13;;;11.10;99.90;;;;;;5020908;28;20063;-78
2022/10/13 08:21:17;;;;;;;37.78;25.27;;;11.10;99.90;;;;;;5030894;28;20037;-78
2022/10/13 08:24:13;;;;;;;38.42;25.85;;;11.20;99.90;;;;;;5033004;28;20063;-77
2022/10/13 08:26:41;;;;;;;31.02;23.70;;;11.30;99.90;;;;;;5019876;28;20045;-78
2022/10/13 08:29:07;;;;;;;28.85;23.17;;;11.30;99.90;;;;;;5039532;28;20478;-78
2022/10/13 08:31:48;;;;;;;29.65;23.65;;;11.30;99.90;;;;;;5035688;28;20159;-78
2022/10/13 08:34:22;;;;;;;29.50;23.50;;;11.40;99.90;;;;;;5016989;28;20041;-77
2022/10/13 08:36:53;;;;;;;29.00;22.80;;;11.40;99.90;;;;;;5017559;28;20051;-78
2022/10/13 08:39:24;;;;;;;33.55;23.10;;;11.40;99.90;;;;;;5017404;28;20128;-78
2022/10/13 08:41:51;;;;;;;29.52;21.58;;;11.60;99.90;;;;;;5040774;28;20049;-77
2022/10/13 08:44:33;;;;;;;27.83;22.80;;;11.70;99.90;;;;;;5027102;28;20029;-79
2022/10/13 08:47:25;;;;;;;27.55;23.45;;;12.10;99.90;;;;;;5039758;28;20040;-79
2022/10/13 08:50:01;;;;;;;28.95;24.20;;;12.50;99.90;;;;;;5022806;28;20059;-79
2022/10/13 08:52:42;;;;;;;35.13;29.05;;;12.80;99.90;;;;;;5030031;28;20038;-78
2022/10/13 08:55:35;;;;;;;30.10;25.70;;;12.80;99.90;;;;;;5030680;28;20071;-78
2022/10/13 08:58:13;;;;;;;28.50;25.67;;;12.90;99.90;;;;;;5016719;28;20231;-78
2022/10/13 09:00:40;;;;;;;27.08;24.45;;;13.00;99.90;;;;;;5051501;28;20040;-78
2022/10/13 09:03:22;;;;;;;46.60;27.23;;;13.00;99.90;;;;;;5037549;28;20033;-79
2022/10/13 09:05:57;;;;;;;34.83;25.75;;;13.00;99.90;;;;;;5018462;28;20037;-79
2022/10/13 09:08:28;;;;;;;28.02;23.63;;;13.30;99.90;;;;;;5042719;28;20067;-79
2022/10/13 09:10:54;;;;;;;27.00;24.30;;;13.40;99.90;;;;;;5035678;28;20056;-78
2022/10/13 09:13:24;;;;;;;29.83;26.67;;;13.40;99.90;;;;;;5026151;28;20049;-78
2022/10/13 09:15:52;;;;;;;27.40;24.58;;;13.40;99.90;;;;;;5010506;28;20056;-78
2022/10/13 09:18:27;;;;;;;29.10;25.50;;;13.60;99.90;;;;;;5031730;28;20053;-79
2022/10/13 09:21:14;;;;;;;;;;;14.00;99.90;;;;;;5035444;28;20055;-78
2022/10/13 09:23:41;;;;;;;30.15;27.05;;;14.20;99.90;;;;;;5019002;28;19970;-79
2022/10/13 09:26:14;;;;;;;29.70;26.65;;;14.40;99.90;;;;;;5037181;28;20064;-78
2022/10/13 09:28:41;;;;;;;29.42;26.50;;;14.50;99.90;;;;;;5037193;28;20080;-79
2022/10/13 09:31:16;;;;;;;29.15;26.30;;;14.60;99.90;;;;;;5017008;28;20118;-78
2022/10/13 09:33:44;;;;;;;30.15;27.25;;;14.70;99.90;;;;;;5028631;28;20130;-78
2022/10/13 09:36:14;;;;;;;29.13;26.25;;;14.80;99.90;;;;;;5021437;28;20068;-79
2022/10/13 09:39:05;;;;;;;28.85;26.52;;;14.80;99.90;;;;;;5029079;28;20051;-80
2022/10/13 09:41:33;;;;;;;30.02;27.13;;;14.80;99.90;;;;;;5030704;28;20041;-78
2022/10/13 09:44:11;;;;;;;30.73;27.42;;;14.80;99.90;;;;;;5002820;28;20046;-78
2022/10/13 09:46:50;;;;;;;30.25;27.40;;;14.90;99.90;;;;;;5019142;28;20136;-80
2022/10/13 09:49:40;;;;;;;29.23;26.33;;;15.20;99.90;;;;;;5036252;28;20113;-78
2022/10/13 09:52:15;;;;;;;28.17;25.67;;;15.40;99.90;;;;;;5013656;28;20036;-80
2022/10/13 09:55:12;;;;;;;29.65;27.05;;;15.70;99.90;;;;;;5038602;28;20061;-78
2022/10/13 09:57:46;;;;;;;31.55;28.77;;;16.10;99.90;;;;;;5024794;28;20045;-80
2022/10/13 10:00:20;;;;;;;31.48;28.35;;;16.30;99.90;;;;;;5042070;28;20186;-78
2022/10/13 10:03:17;;;;;;;29.52;27.30;;;16.40;99.90;;;;;;5011905;28;20100;-79
2022/10/13 10:05:54;;;;;;;29.48;26.98;;;16.20;99.90;;;;;;5043445;28;20048;-77
2022/10/13 10:08:45;;;;;;;29.50;27.05;;;16.20;99.90;;;;;;5013701;28;20060;-77
2022/10/13 10:11:37;;;;;;;29.23;26.55;;;16.30;99.90;;;;;;5030894;28;20257;-78
2022/10/13 10:14:13;;;;;;;28.58;26.08;;;16.30;99.90;;;;;;5010471;28;20045;-79
2022/10/13 10:16:57;;;;;;;29.63;27.08;;;16.30;99.90;;;;;;5038566;28;20629;-78
2022/10/13 10:19:42;;;;;;;31.40;27.88;;;16.30;99.90;;;;;;5037099;28;20044;-78
2022/10/13 10:22:09;;;;;;;;;;;16.30;99.90;;;;;;5003012;28;20139;-77
2022/10/13 10:24:54;;;;;;;27.85;25.27;;;16.50;99.90;;;;;;5041886;28;19927;-79
2022/10/13 10:27:28;;;;;;;28.02;25.33;;;16.50;99.90;;;;;;5037439;28;20136;-78
2022/10/13 10:30:04;;;;;;;28.08;25.52;;;16.40;99.90;;;;;;5025480;28;20050;-78
2022/10/13 10:33:08;;;;;;;31.38;25.90;;;16.20;99.90;;;;;;5039353;28;20063;-79
2022/10/13 10:36:04;;;;;;;28.17;25.48;;;16.00;99.90;;;;;;5032805;28;20132;-80
2022/10/13 10:38:42;;;;;;;26.45;24.45;;;16.10;99.90;;;;;;5004382;28;20052;-78
2022/10/13 10:41:37;;;;;;;31.00;25.00;;;16.10;99.90;;;;;;5036539;28;20138;-78
2022/10/13 10:44:08;;;;;;;26.77;24.52;;;16.30;99.90;;;;;;5026865;28;20044;-78
2022/10/13 10:46:41;;;;;;;25.80;23.30;;;16.40;99.90;;;;;;5035493;28;20128;-78
2022/10/13 10:49:32;;;;;;;25.70;23.33;;;16.60;99.90;;;;;;5044117;28;20043;-78
2022/10/13 10:52:04;;;;;;;26.60;24.20;;;16.70;99.90;;;;;;4999390;28;20047;-78
2022/10/13 10:54:40;;;;;;;26.92;24.77;;;16.80;99.90;;;;;;5025625;28;20042;-77
2022/10/13 10:57:32;;;;;;;26.08;23.85;;;16.90;99.90;;;;;;5026922;28;20064;-78
2022/10/13 11:00:13;;;;;;;25.27;22.92;;;17.00;99.90;;;;;;5043104;28;20406;-78
2022/10/13 11:03:06;;;;;;;24.27;22.60;;;17.00;99.90;;;;;;5022653;28;20053;-78
2022/10/13 11:05:59;;;;;;;26.02;23.52;;;17.00;99.90;;;;;;5020693;28;20048;-79
2022/10/13 11:08:27;;;;;;;26.73;24.25;;;16.90;99.90;;;;;;5025920;28;20071;-78
2022/10/13 11:11:18;;;;;;;26.40;24.17;;;16.80;99.90;;;;;;5034571;28;20050;-78
2022/10/13 11:13:54;;;;;;;25.95;24.00;;;16.70;99.90;;;;;;5040484;28;20163;-79
2022/10/13 11:16:38;;;;;;;25.90;23.90;;;16.60;99.90;;;;;;5034933;28;20043;-77
2022/10/13 11:19:36;;;;;;;26.20;23.95;;;16.50;99.90;;;;;;5027393;28;20045;-78
2022/10/13 11:22:04;;;;;;;25.90;23.88;;;16.40;99.90;;;;;;5023575;28;20037;-79
2022/10/13 11:24:41;;;;;;;24.65;22.88;;;16.40;99.90;;;;;;5005503;28;20061;-79
2022/10/13 11:27:39;;;;;;;25.42;23.50;;;16.50;99.90;;;;;;5026168;28;20462;-78
2022/10/13 11:30:25;;;;;;;;;;;16.60;99.90;;;;;;5023785;28;20051;-79
2022/10/13 11:32:55;;;;;;;24.63;22.63;;;16.70;99.90;;;;;;5047976;28;19971;-78
2022/10/13 11:35:25;;;;;;;24.02;22.33;;;16.80;99.90;;;;;;5045943;28;20037;-79
2022/10/13 11:37:59;;;;;;;25.40;23.35;;;17.00;99.90;;;;;;5031453;28;20503;-79
2022/10/13 11:41:04;;;;;;;26.20;23.73;;;17.10;99.90;;;;;;5033831;28;20053;-81
2022/10/13 11:44:13;;;;;;;26.42;24.05;;;17.40;99.90;;;;;;5026341;28;20041;-79
2022/10/13 11:47:03;;;;;;;25.15;23.10;;;17.50;99.90;;;;;;5031336;28;20033;-79
2022/10/13 11:50:01;;;;;;;26.08;23.55;;;17.80;99.90;;;;;;5032948;28;20048;-78
2022/10/13 11:52:52;;;;;;;26.77;24.45;;;17.80;99.90;;;;;;5018758;28;20041;-78
2022/10/13 11:55:44;;;;;;;25.40;23.60;;;17.70;99.90;;;;;;5040147;28;20045;-78
2022/10/13 11:58:27;;;;;;;25.98;23.90;;;17.60;99.90;;;;;;5028114;28;20059;-80
2022/10/13 12:01:05;;;;;;;25.48;23.45;;;17.40;99.90;;;;;;5045554;28;20049;-79
2022/10/13 12:03:35;;;;;;;25.88;23.88;;;17.30;99.90;;;;;;5022844;28;20080;-78
2022/10/13 12:06:06;;;;;;;27.02;24.92;;;17.30;99.90;;;;;;5049280;28;20067;-79
2022/10/13 12:08:35;;;;;;;27.15;24.90;;;17.20;99.90;;;;;;5032271;28;20045;-79
2022/10/13 12:11:06;;;;;;;26.52;24.10;;;17.20;99.90;;;;;;5024870;28;20057;-78
2022/10/13 12:13:36;;;;;;;25.60;23.55;;;17.10;99.90;;;;;;5025747;28;20057;-78
2022/10/13 12:16:05;;;;;;;26.63;24.58;;;17.20;99.90;;;;;;5044015;28;20040;-78
2022/10/13 12:18:37;;;;;;;26.88;24.35;;;17.30;99.90;;;;;;5044041;28;20084;-75
2022/10/13 12:21:16;;;;;;;26.60;24.52;;;17.30;99.90;;;;;;5039143;28;20044;-80
2022/10/13 12:23:43;;;;;;;26.45;24.48;;;17.10;99.90;;;;;;5033363;28;20037;-77
2022/10/13 12:26:18;;;;;;;26.52;24.17;;;17.10;99.90;;;;;;5027368;28;20037;-79
2022/10/13 12:28:50;;;;;;;26.75;24.60;;;17.10;99.90;;;;;;5043242;28;20037;-78
2022/10/13 12:31:23;;;;;;;27.40;24.80;;;17.10;99.90;;;;;;5040096;28;20668;-79
2022/10/13 12:33:55;;;;;;;25.83;23.77;;;17.00;99.90;;;;;;5026326;28;20051;-77
2022/10/13 12:36:26;;;;;;;26.15;24.00;;;17.10;99.90;;;;;;5019399;28;20542;-79
2022/10/13 12:39:00;;;;;;;27.00;24.60;;;17.10;99.90;;;;;;5030398;28;20120;-78
2022/10/13 12:41:30;;;;;;;28.00;25.27;;;17.20;99.90;;;;;;5040803;28;20049;-79
2022/10/13 12:43:57;;;;;;;27.58;25.20;;;17.40;99.90;;;;;;5042474;28;20041;-78
2022/10/13 12:46:41;;;;;;;31.90;29.25;;;17.20;99.90;;;;;;5045451;28;20055;-79
2022/10/13 12:49:14;;;;;;;28.17;25.65;;;17.10;99.90;;;;;;5030207;28;20041;-79
2022/10/13 12:51:49;;;;;;;28.38;25.73;;;16.90;99.90;;;;;;5020515;28;20049;-76
2022/10/13 12:54:23;;;;;;;28.83;26.37;;;17.10;99.90;;;;;;5024541;28;20048;-76
2022/10/13 12:56:51;;;;;;;26.88;24.73;;;17.30;99.90;;;;;;5041712;28;20275;-76
2022/10/13 12:59:23;;;;;;;26.95;24.75;;;17.20;99.90;;;;;;5037070;28;20670;-76
2022/10/13 13:02:02;;;;;;;26.40;24.23;;;17.10;99.90;;;;;;5042122;28;20237;-76